ダカール の空港の天気 - METARとTAF

レオポール・セダール・サンゴール国際空港 ( GOOY / DKR ) - セネガル ダカール
飛行場実況気象(Metar)
観測時間07/19 03:00 GMT (07/19 03:00 UTC)
風向・風速西 4m/s
視程8000m
天気現象
全天の4割程度の雲 雲底高度 400m
気温24℃
湿度94%
気圧1013hPa
METARGOOY 190300Z 28008KT 8000 SCT013 24/23 Q1013
過去の天気等 Google飛行場航空写真 Wunderground天気予報

過去48時間のMETAR

飛行場予報(TAF)
発表時間: 7/18 23:30 GMT (7/18 23:30 UTC)
予報対象時間: 19日0時 GMT ~ 20日6時 GMT
風向・風速西北西 5m/s
視程10km以上
全天の4割程度の雲 雲底高度 400m
TAF GOOY 182330Z 1900/2006 30010KT 9999 SCT013